Time;durP1;ratioP1;P1;durP2;ratioP2;P2;SDS_P1;SDS_P2;PMS_P1;PMS_P2;Temp;Humidity;BMP_temperature;BMP_pressure;BME280_temperature;BME280_humidity;BME280_pressure;Samples;Min_cycle;Max_cycle;Signal;HPM_P1;HPM_P2
2023/06/18 00:01:04;;;;;;;2.17;0.98;;;;;;;17.64;100.00;99455.56;7396391;19;20018;-56
2023/06/18 00:03:30;;;;;;;1.13;0.40;;;;;;;16.68;100.00;99454.41;7395951;19;20027;-56
2023/06/18 00:05:56;;;;;;;1.88;0.55;;;;;;;16.33;100.00;99457.28;7393594;19;20011;-61
2023/06/18 00:08:22;;;;;;;3.15;0.57;;;;;;;16.76;100.00;99445.41;7396704;19;20010;-61
2023/06/18 00:10:49;;;;;;;0.52;0.40;;;;;;;30.67;81.43;99398.38;7396645;19;20003;-59
2023/06/18 00:13:16;;;;;;;5.43;1.10;;;;;;;20.12;100.00;99420.94;7394561;19;20015;-58
2023/06/18 00:15:42;;;;;;;9.02;1.70;;;;;;;16.71;100.00;99429.34;7393785;19;20034;-59
2023/06/18 00:18:08;;;;;;;5.00;1.50;;;;;;;15.97;100.00;99436.16;7393060;19;20014;-59
2023/06/18 00:20:34;;;;;;;5.88;1.23;;;;;;;29.67;88.86;99413.63;7393409;19;20018;-60
2023/06/18 00:23:01;;;;;;;2.90;1.08;;;;;;;33.38;58.87;99414.81;7394517;19;20011;-60
2023/06/18 00:25:28;;;;;;;2.90;1.15;;;;;;;25.80;98.07;99415.47;7394210;19;20021;-59
2023/06/18 00:27:54;;;;;;;3.65;1.50;;;;;;;27.19;100.00;99403.41;7394223;19;20530;-59
2023/06/18 00:30:21;;;;;;;0.80;0.63;;;;;;;16.90;100.00;99432.94;7396002;19;20026;-60
2023/06/18 00:32:48;;;;;;;1.55;0.90;;;;;;;15.88;100.00;99433.66;7396450;19;20011;-59
2023/06/18 00:35:15;;;;;;;1.13;0.80;;;;;;;14.95;100.00;99430.84;7392442;19;20447;-59
2023/06/18 00:37:44;;;;;;;2.22;0.70;;;;;;;14.33;100.00;99437.13;7392749;19;20037;-59
2023/06/18 00:40:12;;;;;;;2.05;0.90;;;;;;;14.01;100.00;99442.19;7400497;19;20038;-60
2023/06/18 00:42:39;;;;;;;2.58;0.70;;;;;;;13.78;100.00;99445.50;7404395;19;20013;-86
2023/06/18 00:45:11;;;;;;;1.75;0.65;;;;;;;13.57;100.00;99439.38;7405241;19;20060;-87
2023/06/18 00:47:44;;;;;;;3.40;0.70;;;;;;;15.62;100.00;99424.91;7403556;19;20014;-86
2023/06/18 00:50:14;;;;;;;1.30;0.63;;;;;;;13.58;100.00;99438.88;7406008;19;20014;-86
2023/06/18 00:52:44;;;;;;;4.72;1.05;;;;;;;13.47;100.00;99432.50;7417267;19;20034;-86
2023/06/18 00:55:16;;;;;;;5.53;1.50;;;;;;;15.73;100.00;99420.00;7417138;19;20031;-86
2023/06/18 00:57:45;;;;;;;2.65;0.70;;;;;;;16.34;100.00;99421.50;7408528;19;20018;-85
2023/06/18 01:00:14;;;;;;;3.50;0.70;;;;;;;17.61;100.00;99410.78;7406910;19;20362;-85
2023/06/18 01:02:45;;;;;;;2.20;1.05;;;;;;;15.37;100.00;99404.38;7406871;19;20506;-85
2023/06/18 01:05:13;;;;;;;2.83;0.88;;;;;;;16.72;100.00;99417.56;7403904;19;20010;-85
2023/06/18 01:07:42;;;;;;;1.95;1.05;;;;;;;16.15;100.00;99413.00;7406093;19;20038;-84
2023/06/18 01:10:11;;;;;;;1.60;1.38;;;;;;;14.59;100.00;99425.63;7407267;19;20688;-85
2023/06/18 01:12:37;;;;;;;2.40;0.98;;;;;;;18.16;100.00;99421.94;7401347;19;20515;-85
2023/06/18 01:15:03;;;;;;;1.25;0.70;;;;;;;14.06;100.00;99423.88;7406094;19;20032;-86
2023/06/18 01:17:33;;;;;;;3.13;1.08;;;;;;;13.36;100.00;99433.22;7402724;19;20026;-86
2023/06/18 01:20:09;;;;;;;0.70;0.70;;;;;;;13.34;100.00;99438.56;7404464;19;20686;-85
2023/06/18 01:22:51;;;;;;;3.95;1.13;;;;;;;13.10;100.00;99426.28;7403960;19;20018;-86
2023/06/18 01:25:18;;;;;;;3.42;0.82;;;;;;;13.13;100.00;99442.81;7404857;19;20406;-85
2023/06/18 01:27:47;;;;;;;1.98;1.23;;;;;;;14.10;100.00;99424.38;7406510;19;20077;-86
2023/06/18 01:30:14;;;;;;;2.05;0.68;;;;;;;12.94;100.00;99431.28;7406570;19;20022;-86
2023/06/18 01:32:40;;;;;;;1.73;0.73;;;;;;;12.65;100.00;99442.81;7406009;19;20521;-86
2023/06/18 01:35:08;;;;;;;3.25;1.55;;;;;;;12.55;100.00;99432.34;7405537;19;20021;-86
2023/06/18 01:37:48;;;;;;;1.55;0.40;;;;;;;12.52;100.00;99436.91;7404828;19;20014;-86
2023/06/18 01:40:20;;;;;;;2.10;0.50;;;;;;;12.62;100.00;99440.28;7405321;19;20018;-86
2023/06/18 01:43:11;;;;;;;3.13;1.00;;;;;;;13.15;100.00;99426.31;7405978;19;20035;-87
2023/06/18 01:46:09;;;;;;;1.50;0.75;;;;;;;13.48;100.00;99417.22;7404042;19;20023;-86
2023/06/18 01:48:44;;;;;;;0.85;0.70;;;;;;;13.40;100.00;99419.78;7403003;19;20014;-87
2023/06/18 01:51:12;;;;;;;4.80;0.68;;;;;;;13.05;100.00;99416.63;7398970;19;20047;-87
2023/06/18 01:53:40;;;;;;;3.08;1.73;;;;;;;14.35;100.00;99406.56;7394953;19;20006;-86
2023/06/18 01:56:09;;;;;;;0.63;0.63;;;;;;;14.58;100.00;99391.22;7398030;19;20345;-86
2023/06/18 01:58:36;;;;;;;1.17;0.75;;;;;;;13.71;100.00;99415.25;7395417;19;20011;-87
2023/06/18 02:01:03;;;;;;;0.90;0.65;;;;;;;14.71;100.00;99411.06;7395658;19;20021;-87
2023/06/18 02:03:29;;;;;;;4.18;1.30;;;;;;;14.86;100.00;99405.91;7397001;19;20018;-86
2023/06/18 02:05:55;;;;;;;3.55;1.33;;;;;;;13.76;100.00;99422.84;7396133;19;20030;-86
2023/06/18 02:08:21;;;;;;;1.52;0.77;;;;;;;13.42;100.00;99439.63;7395726;19;20010;-86
2023/06/18 02:10:48;;;;;;;3.42;0.77;;;;;;;13.53;100.00;99439.63;7395999;19;20023;-86
2023/06/18 02:13:14;;;;;;;3.03;0.85;;;;;;;13.83;100.00;99433.56;7394233;19;20482;-86
2023/06/18 02:15:41;;;;;;;1.88;0.80;;;;;;;13.75;100.00;99421.34;7395499;19;20011;-86
2023/06/18 02:18:08;;;;;;;2.80;0.90;;;;;;;13.41;100.00;99423.31;7393988;19;20022;-86
2023/06/18 02:20:35;;;;;;;3.75;1.52;;;;;;;13.29;100.00;99430.94;7395200;19;20023;-86
2023/06/18 02:23:01;;;;;;;0.60;0.50;;;;;;;13.56;100.00;99430.22;7394272;19;20018;-86
2023/06/18 02:25:32;;;;;;;2.97;1.08;;;;;;;13.35;100.00;99428.13;7395182;19;20471;-85
2023/06/18 02:27:59;;;;;;;4.50;0.95;;;;;;;13.71;100.00;99415.97;7395104;19;20018;-84
2023/06/18 02:30:28;;;;;;;4.68;1.13;;;;;;;13.63;100.00;99412.16;7397255;19;20014;-86
2023/06/18 02:32:58;;;;;;;1.67;0.43;;;;;;;13.41;100.00;99414.91;7397245;19;20009;-85
2023/06/18 02:35:26;;;;;;;4.55;1.20;;;;;;;13.26;100.00;99415.16;7395601;19;20021;-86
2023/06/18 02:37:52;;;;;;;1.08;0.93;;;;;;;13.39;100.00;99417.47;7394170;19;20022;-85
2023/06/18 02:40:19;;;;;;;2.45;1.35;;;;;;;14.22;100.00;99425.91;7395246;19;20109;-85
2023/06/18 02:45:45;;;;;;;0.50;0.15;;;;;;;16.56;100.00;99388.34;7393378;19;20341;-57
2023/06/18 02:48:13;;;;;;;5.22;1.20;;;;;;;15.19;100.00;99399.38;7401650;19;20066;-57
2023/06/18 02:50:39;;;;;;;1.48;0.40;;;;;;;17.42;100.00;99391.09;7396812;19;20026;-57
2023/06/18 02:53:05;;;;;;;3.60;1.08;;;;;;;15.66;100.00;99386.09;7396114;19;20015;-55
2023/06/18 02:55:32;;;;;;;2.47;1.40;;;;;;;17.96;100.00;99374.63;7396051;19;20038;-55
2023/06/18 02:57:58;;;;;;;4.45;1.42;;;;;;;23.31;100.00;99365.19;7394525;19;20344;-55
2023/06/18 03:49:57;;;;;;;3.20;1.30;;;;;;;14.81;100.00;99364.63;7390350;19;20036;-83
2023/06/18 03:52:23;;;;;;;3.47;2.30;;;;;;;14.81;100.00;99364.63;7390056;19;20078;-83
2023/06/18 03:54:49;;;;;;;5.22;1.17;;;;;;;14.65;100.00;99356.31;7393152;19;20043;-88
2023/06/18 03:57:16;;;;;;;6.43;2.10;;;;;;;15.51;100.00;99360.44;7393054;19;20342;-92
2023/06/18 03:59:42;;;;;;;2.45;1.45;;;;;;;15.34;100.00;99356.94;7393409;19;20031;-92
2023/06/18 04:02:08;;;;;;;4.75;1.60;;;;;;;15.11;100.00;99353.53;7394488;19;20011;-92
2023/06/18 04:04:35;;;;;;;3.17;1.95;;;;;;;15.83;100.00;99353.78;7393025;19;20481;-91
2023/06/18 04:07:01;;;;;;;6.20;1.85;;;;;;;15.40;100.00;99352.81;7393904;19;20112;-91
2023/06/18 04:09:27;;;;;;;8.43;2.50;;;;;;;15.14;100.00;99344.84;7395649;19;20022;-91
2023/06/18 04:11:54;;;;;;;3.80;1.30;;;;;;;15.87;100.00;99339.47;7392355;19;20043;-91
2023/06/18 04:14:20;;;;;;;4.50;2.08;;;;;;;15.84;100.00;99326.47;7392421;19;20006;-91
2023/06/18 04:16:47;;;;;;;4.78;1.20;;;;;;;17.72;100.00;99321.25;7392673;19;20040;-90
2023/06/18 04:19:13;;;;;;;2.63;1.25;;;;;;;18.19;100.00;99325.03;7393331;19;20023;-91
2023/06/18 04:21:40;;;;;;;2.78;1.38;;;;;;;19.03;100.00;99334.66;7392530;19;20469;-91
2023/06/18 04:24:07;;;;;;;3.65;0.65;;;;;;;18.32;100.00;99331.97;7394780;19;20046;-94
2023/06/18 04:26:33;;;;;;;6.25;2.03;;;;;;;18.63;100.00;99331.13;7393258;19;20019;-93
2023/06/18 04:28:59;;;;;;;7.93;2.35;;;;;;;18.46;100.00;99337.09;7394157;19;20022;-92
2023/06/18 04:31:25;;;;;;;1.60;0.88;;;;;;;17.05;100.00;99337.63;7393165;19;20026;-91
2023/06/18 04:33:52;;;;;;;3.75;2.15;;;;;;;17.79;100.00;99343.16;7395884;19;20018;-94
2023/06/18 04:36:18;;;;;;;2.45;1.50;;;;;;;17.74;100.00;99341.19;7398190;19;20007;-93
2023/06/18 04:38:49;;;;;;;5.03;2.00;;;;;;;17.89;100.00;99340.69;7395949;19;20011;-96
2023/06/18 04:41:15;;;;;;;6.45;2.30;;;;;;;16.26;100.00;99347.53;7399145;19;20014;-91
2023/06/18 04:43:41;;;;;;;2.80;1.50;;;;;;;15.56;100.00;99360.41;7392270;19;20018;-91
2023/06/18 04:46:07;;;;;;;5.60;1.42;;;;;;;15.59;100.00;99364.22;7392815;19;20031;-90
2023/06/18 04:48:34;;;;;;;14.88;1.65;;;;;;;16.14;100.00;99362.94;7391823;19;20011;-90
2023/06/18 04:51:02;;;;;;;1.98;1.63;;;;;;;16.17;100.00;99357.06;7394977;19;20548;-91
2023/06/18 04:53:31;;;;;;;6.68;2.50;;;;;;;16.42;100.00;99367.00;7391571;19;20007;-90
2023/06/18 04:55:57;;;;;;;1.70;0.85;;;;;;;17.16;100.00;99362.78;7393245;19;20022;-89
2023/06/18 04:58:25;;;;;;;3.97;1.88;;;;;;;17.32;100.00;99373.84;7390321;19;20020;-89
2023/06/18 05:00:53;;;;;;;3.47;1.30;;;;;;;16.98;100.00;99363.56;7393777;19;20089;-91
2023/06/18 05:03:19;;;;;;;1.92;1.70;;;;;;;18.18;100.00;99350.94;7394661;19;20014;-91
2023/06/18 05:05:46;;;;;;;2.30;1.75;;;;;;;16.06;100.00;99353.59;7392295;19;20015;-90
2023/06/18 05:08:13;;;;;;;6.10;2.70;;;;;;;15.90;100.00;99358.06;7391634;19;20019;-90
2023/06/18 05:10:39;;;;;;;3.42;1.23;;;;;;;16.67;100.00;99336.84;7393534;19;20058;-90
2023/06/18 05:13:05;;;;;;;12.23;2.38;;;;;;;15.55;100.00;99336.41;7391450;19;20015;-90
2023/06/18 05:15:31;;;;;;;3.83;2.20;;;;;;;14.46;100.00;99361.72;7391033;19;20491;-89
2023/06/18 05:17:59;;;;;;;3.30;1.70;;;;;;;15.04;100.00;99363.25;7389821;19;20946;-91
2023/06/18 05:20:25;;;;;;;3.95;1.65;;;;;;;14.35;100.00;99367.34;7392538;19;20088;-90
2023/06/18 05:22:54;;;;;;;6.68;1.70;;;;;;;14.46;100.00;99366.56;7389583;19;20019;-90
2023/06/18 05:25:20;;;;;;;2.13;1.35;;;;;;;19.64;100.00;99334.03;7391287;19;20035;-89
2023/06/18 05:27:46;;;;;;;5.68;1.70;;;;;;;15.77;100.00;99343.88;7398764;19;20058;-91
2023/06/18 05:30:13;;;;;;;8.60;2.10;;;;;;;21.01;100.00;99334.38;7399216;19;20019;-91
2023/06/18 05:32:39;;;;;;;2.83;1.20;;;;;;;17.11;100.00;99341.13;7399932;19;20023;-90
2023/06/18 05:35:09;;;;;;;4.65;1.77;;;;;;;14.60;100.00;99360.66;7400315;19;20017;-92
2023/06/18 05:37:42;;;;;;;5.30;1.33;;;;;;;20.62;100.00;99334.78;7397135;19;20010;-90
2023/06/18 05:40:09;;;;;;;2.58;1.92;;;;;;;20.37;100.00;99316.72;7398509;19;20031;-92
2023/06/18 05:42:35;;;;;;;4.57;1.80;;;;;;;15.61;100.00;99333.56;7396654;19;20022;-91
2023/06/18 05:45:03;;;;;;;5.13;1.75;;;;;;;15.07;100.00;99342.56;7398276;19;20011;-89
2023/06/18 05:47:29;;;;;;;6.05;1.35;;;;;;;15.88;100.00;99343.78;7400128;19;20025;-89
2023/06/18 05:49:59;;;;;;;8.30;1.38;;;;;;;17.09;100.00;99332.44;7398119;19;20029;-90
2023/06/18 05:52:26;;;;;;;3.45;1.60;;;;;;;15.09;100.00;99345.63;7395607;19;20010;-90
2023/06/18 05:54:52;;;;;;;4.13;1.98;;;;;;;15.16;100.00;99345.06;7397377;19;20022;-89
2023/06/18 05:57:18;;;;;;;2.53;1.42;;;;;;;16.24;100.00;99345.22;7395762;19;20010;-90
2023/06/18 05:59:47;;;;;;;4.57;1.33;;;;;;;15.17;100.00;99352.22;7399044;19;20022;-89
2023/06/18 06:02:15;;;;;;;;;;;;;;;15.00;100.00;99356.41;7398595;19;20014;-90
2023/06/18 06:04:41;;;;;;;6.80;1.92;;;;;;;16.18;100.00;99336.09;7394966;19;20235;-89
2023/06/18 06:07:07;;;;;;;4.13;1.27;;;;;;;15.45;100.00;99354.09;7394298;19;20011;-88
2023/06/18 06:09:33;;;;;;;3.70;1.58;;;;;;;22.20;100.00;99334.44;7394663;19;20026;-88
2023/06/18 06:12:00;;;;;;;8.40;1.52;;;;;;;28.63;100.00;99320.66;7397045;19;20037;-88
2023/06/18 06:14:26;;;;;;;4.68;1.33;;;;;;;18.51;100.00;99343.94;7397413;19;20021;-88
2023/06/18 06:16:57;;;;;;;3.88;1.05;;;;;;;16.72;100.00;99346.53;7396570;19;20083;-88
2023/06/18 06:19:24;;;;;;;4.45;1.52;;;;;;;18.69;100.00;99351.53;7396100;19;20010;-88
2023/06/18 06:21:50;;;;;;;4.68;1.55;;;;;;;18.92;100.00;99344.13;7400120;19;20022;-88
2023/06/18 06:24:17;;;;;;;3.88;1.23;;;;;;;19.02;100.00;99333.13;7396661;19;20017;-87
2023/06/18 06:26:43;;;;;;;4.03;1.13;;;;;;;16.93;100.00;99359.53;7395839;19;20465;-88
2023/06/18 06:29:09;;;;;;;5.80;1.92;;;;;;;26.92;100.00;99341.44;7396160;19;20030;-88
2023/06/18 06:31:37;;;;;;;2.20;1.25;;;;;;;27.72;100.00;99346.56;7397850;19;20029;-87
2023/06/18 06:34:03;;;;;;;4.45;1.38;;;;;;;18.51;100.00;99355.22;7396643;19;20018;-87
2023/06/18 06:36:29;;;;;;;3.83;0.98;;;;;;;21.42;100.00;99347.56;7395762;19;20010;-87
2023/06/18 06:38:56;;;;;;;7.65;1.48;;;;;;;20.07;100.00;99350.41;7391282;19;20014;-87
2023/06/18 06:41:23;;;;;;;3.50;1.65;;;;;;;23.90;100.00;99333.38;7395539;19;20007;-86
2023/06/18 06:43:49;;;;;;;4.97;1.45;;;;;;;28.76;100.00;99334.44;7394788;19;20018;-86
2023/06/18 06:46:41;;;;;;;3.58;0.77;;;;;;;33.71;72.73;99316.81;7395354;19;20019;-86
2023/06/18 06:49:26;;;;;;;1.58;0.70;;;;;;;34.57;66.39;99301.91;7396675;19;20007;-86
2023/06/18 06:52:06;;;;;;;5.30;1.77;;;;;;;35.09;65.97;99295.44;7395490;19;20010;-86
2023/06/18 06:54:32;;;;;;;5.43;1.48;;;;;;;34.64;63.37;99287.06;7398256;19;20013;-86
2023/06/18 06:56:58;;;;;;;5.57;2.20;;;;;;;36.77;53.98;99294.56;7397527;19;20018;-86
2023/06/18 06:59:25;;;;;;;4.57;2.13;;;;;;;37.84;49.15;99298.75;7393894;19;20022;-85
2023/06/18 07:01:51;;;;;;;3.00;1.92;;;;;;;38.27;47.27;99294.91;7396107;19;20015;-86
2023/06/18 07:04:17;;;;;;;9.38;2.10;;;;;;;38.58;45.29;99294.28;7393353;19;20038;-89
2023/06/18 07:06:43;;;;;;;6.25;1.40;;;;;;;38.71;43.40;99294.63;7394291;19;20022;-88
2023/06/18 07:09:09;;;;;;;6.97;1.33;;;;;;;36.91;45.69;99306.66;7394561;19;20349;-87
2023/06/18 07:11:36;;;;;;;4.95;2.00;;;;;;;38.69;42.71;99298.25;7397932;19;20424;-88
2023/06/18 07:14:03;;;;;;;7.63;1.55;;;;;;;39.84;39.33;99287.16;7391674;19;20021;-88
2023/06/18 07:16:29;;;;;;;4.70;1.35;;;;;;;40.24;38.08;99281.44;7394124;19;20026;-88
2023/06/18 07:18:55;;;;;;;3.58;1.25;;;;;;;40.75;37.07;99280.19;7393027;19;20039;-87
2023/06/18 07:21:21;;;;;;;4.47;2.00;;;;;;;40.99;36.24;99286.47;7395754;19;20485;-87
2023/06/18 07:23:47;;;;;;;4.15;1.92;;;;;;;40.42;36.71;99296.38;7395742;19;20014;-87
2023/06/18 07:26:13;;;;;;;10.30;2.05;;;;;;;40.34;35.95;99283.78;7393332;19;20379;-87
2023/06/18 07:28:39;;;;;;;5.15;1.45;;;;;;;40.19;34.78;99279.13;7395360;19;20089;-87
2023/06/18 07:31:05;;;;;;;4.32;1.75;;;;;;;22.87;100.00;99320.69;7395636;19;20025;-87
2023/06/18 07:33:32;;;;;;;3.65;1.73;;;;;;;20.15;100.00;99303.91;7393679;19;20038;-87
2023/06/18 07:35:58;;;;;;;3.63;1.20;;;;;;;20.80;100.00;99294.13;7393892;19;20026;-87
2023/06/18 07:38:24;;;;;;;3.00;1.02;;;;;;;18.90;100.00;99290.28;7392385;19;20052;-86
2023/06/18 07:40:50;;;;;;;2.08;0.90;;;;;;;18.22;100.00;99285.78;7394414;19;20021;-87
2023/06/18 07:43:16;;;;;;;6.32;1.55;;;;;;;17.95;100.00;99285.75;7390611;19;20057;-86
2023/06/18 07:45:42;;;;;;;4.07;1.05;;;;;;;17.83;100.00;99286.50;7393823;19;20016;-86
2023/06/18 07:48:08;;;;;;;2.58;1.25;;;;;;;17.86;100.00;99294.66;7394298;19;20018;-86
2023/06/18 07:50:35;;;;;;;3.65;1.08;;;;;;;18.08;100.00;99285.78;7392350;19;20007;-86
2023/06/18 07:53:02;;;;;;;2.05;0.90;;;;;;;18.49;100.00;99290.16;7390985;19;20023;-86
2023/06/18 07:55:28;;;;;;;1.70;0.82;;;;;;;18.10;100.00;99300.06;7394494;19;20025;-86
2023/06/18 07:57:55;;;;;;;3.63;1.17;;;;;;;18.14;100.00;99289.25;7392298;19;20048;-86
2023/06/18 08:00:22;;;;;;;6.00;1.63;;;;;;;18.23;100.00;99293.72;7390830;19;20018;-87
2023/06/18 08:02:48;;;;;;;6.45;1.50;;;;;;;18.37;100.00;99289.56;7392311;19;20512;-86
2023/06/18 08:05:14;;;;;;;2.55;1.25;;;;;;;18.47;100.00;99298.41;7391593;19;20018;-86
2023/06/18 08:07:40;;;;;;;4.75;1.25;;;;;;;18.60;100.00;99301.94;7392167;19;20014;-86
2023/06/18 08:10:07;;;;;;;3.70;0.82;;;;;;;18.56;100.00;99300.78;7392609;19;20018;-84
2023/06/18 08:12:33;;;;;;;14.20;1.08;;;;;;;19.09;100.00;99302.16;7392070;19;20081;-85
2023/06/18 08:14:59;;;;;;;3.10;0.57;;;;;;;19.57;100.00;99295.91;7395811;19;20025;-85
2023/06/18 08:17:25;;;;;;;3.05;1.13;;;;;;;20.23;100.00;99287.00;7391583;19;20078;-85
2023/06/18 08:19:51;;;;;;;3.67;1.35;;;;;;;20.29;100.00;99285.53;7391543;19;20468;-84
2023/06/18 08:22:17;;;;;;;2.97;1.10;;;;;;;20.21;100.00;99286.81;7390672;19;20038;-85
2023/06/18 08:24:44;;;;;;;3.15;1.05;;;;;;;20.51;100.00;99289.81;7394388;19;20038;-83
2023/06/18 08:27:15;;;;;;;1.67;0.57;;;;;;;20.36;100.00;99286.91;7392118;19;20379;-83
2023/06/18 08:29:41;;;;;;;2.08;0.43;;;;;;;20.40;100.00;99284.47;7390261;19;20102;-83
2023/06/18 08:32:07;;;;;;;2.75;1.00;;;;;;;21.18;100.00;99277.25;7392712;19;20033;-82
2023/06/18 08:34:36;;;;;;;2.47;0.85;;;;;;;20.72;100.00;99276.34;7393541;19;20015;-83
2023/06/18 08:37:03;;;;;;;4.55;1.35;;;;;;;21.35;100.00;99279.59;7393010;19;20487;-83
2023/06/18 08:39:29;;;;;;;2.35;1.10;;;;;;;21.48;100.00;99276.56;7390218;19;20010;-84
2023/06/18 08:42:00;;;;;;;3.08;1.52;;;;;;;22.09;100.00;99266.75;7395121;19;20031;-84
2023/06/18 08:44:27;;;;;;;4.50;0.85;;;;;;;22.19;100.00;99273.38;7390445;19;20024;-84
2023/06/18 08:47:00;;;;;;;4.40;1.30;;;;;;;22.11;100.00;99275.44;7390963;19;20018;-83
2023/06/18 08:49:27;;;;;;;2.28;0.50;;;;;;;21.59;100.00;99273.38;7393775;19;20018;-83
2023/06/18 08:51:56;;;;;;;5.93;0.75;;;;;;;21.38;100.00;99272.78;7389635;19;20019;-83
2023/06/18 08:54:30;;;;;;;7.20;0.82;;;;;;;21.37;100.00;99265.59;7389715;19;20023;-83
2023/06/18 08:57:02;;;;;;;2.70;0.70;;;;;;;22.14;100.00;99267.88;7390519;19;20022;-82
2023/06/18 08:59:31;;;;;;;2.60;0.70;;;;;;;21.71;100.00;99266.00;7392245;19;20011;-82
2023/06/18 09:01:57;;;;;;;6.13;1.77;;;;;;;21.83;100.00;99267.16;7398672;19;20513;-82
2023/06/18 09:04:25;;;;;;;2.88;0.77;;;;;;;21.43;100.00;99275.44;7399554;19;20368;-82
2023/06/18 09:06:53;;;;;;;4.78;1.08;;;;;;;21.73;100.00;99277.53;7396880;19;20029;-82
2023/06/18 09:09:21;;;;;;;5.25;1.67;;;;;;;24.13;100.00;99262.81;7397375;19;20023;-84
2023/06/18 09:11:47;;;;;;;2.30;1.02;;;;;;;23.16;100.00;99262.22;7397030;19;20038;-84
2023/06/18 09:14:16;;;;;;;1.98;0.70;;;;;;;23.28;100.00;99258.34;7398885;19;20029;-82
2023/06/18 09:16:43;;;;;;;5.57;1.03;;;;;;;23.15;100.00;99266.41;7398947;19;20015;-82
2023/06/18 09:19:10;;;;;;;4.85;1.33;;;;;;;24.35;100.00;99252.53;7398752;19;20014;-82
2023/06/18 09:21:40;;;;;;;3.20;1.23;;;;;;;24.65;100.00;99252.19;7394740;19;20025;-83
2023/06/18 09:24:15;;;;;;;2.47;0.65;;;;;;;23.07;100.00;99248.63;7397416;19;20007;-83
2023/06/18 09:26:42;;;;;;;3.22;0.93;;;;;;;23.05;100.00;99256.97;7400461;19;20015;-82
2023/06/18 09:29:09;;;;;;;3.80;0.90;;;;;;;22.50;100.00;99243.56;7398436;19;20010;-83
2023/06/18 09:31:44;;;;;;;2.80;0.90;;;;;;;22.63;100.00;99244.69;7399994;19;20014;-82
2023/06/18 09:34:15;;;;;;;5.28;1.10;;;;;;;22.94;100.00;99251.72;7400553;19;20021;-81
2023/06/18 09:36:43;;;;;;;3.40;0.80;;;;;;;22.31;100.00;99242.50;7398417;19;20047;-82
2023/06/18 09:39:20;;;;;;;1.80;0.90;;;;;;;22.81;100.00;99244.22;7397925;19;20082;-83
2023/06/18 09:41:49;;;;;;;3.17;1.23;;;;;;;21.84;100.00;99246.00;7396552;19;20015;-83
2023/06/18 09:44:16;;;;;;;8.07;0.90;;;;;;;22.85;100.00;99243.84;7395862;19;20019;-82
2023/06/18 09:46:44;;;;;;;1.75;0.70;;;;;;;23.08;100.00;99238.78;7395471;19;20006;-82
2023/06/18 09:49:12;;;;;;;5.18;1.67;;;;;;;24.16;100.00;99238.13;7400109;19;20024;-82
2023/06/18 09:51:41;;;;;;;1.75;0.68;;;;;;;23.22;100.00;99237.94;7394492;19;20015;-82
2023/06/18 09:54:08;;;;;;;5.20;1.58;;;;;;;23.55;100.00;99229.38;7394623;19;20018;-82
2023/06/18 09:56:35;;;;;;;3.58;1.58;;;;;;;24.09;100.00;99228.34;7394417;19;20006;-82
2023/06/18 09:59:03;;;;;;;3.17;1.17;;;;;;;24.41;100.00;99227.41;7391221;19;20018;-82
2023/06/18 10:01:45;;;;;;;4.97;1.52;;;;;;;24.36;100.00;99237.75;7396240;19;20022;-81
2023/06/18 10:04:11;;;;;;;4.05;1.90;;;;;;;24.69;100.00;99236.19;7396477;19;20026;-82
2023/06/18 10:06:42;;;;;;;4.53;1.02;;;;;;;24.84;100.00;99218.94;7396827;19;20022;-82
2023/06/18 10:09:10;;;;;;;10.05;1.65;;;;;;;25.82;100.00;99221.63;7396325;19;20468;-82
2023/06/18 10:11:37;;;;;;;2.88;0.75;;;;;;;29.92;100.00;99209.97;7398165;19;20018;-82
2023/06/18 10:14:10;;;;;;;3.15;1.33;;;;;;;43.27;47.01;99186.59;7394570;19;20021;-82
2023/06/18 10:16:41;;;;;;;3.38;1.75;;;;;;;45.75;37.86;99182.31;7395898;19;20413;-82
2023/06/18 10:19:13;;;;;;;14.63;1.65;;;;;;;47.01;34.03;99179.16;7393667;19;20010;-82
2023/06/18 10:21:49;;;;;;;5.03;1.00;;;;;;;44.97;32.65;99177.41;7397517;19;20023;-82
2023/06/18 10:24:22;;;;;;;4.88;0.82;;;;;;;28.44;98.68;99189.72;7395313;19;20428;-82
2023/06/18 10:26:49;;;;;;;3.72;1.23;;;;;;;41.73;44.90;99169.88;7395917;19;20082;-82
2023/06/18 10:29:15;;;;;;;3.00;1.48;;;;;;;46.00;34.64;99162.34;7395903;19;20018;-82
2023/06/18 10:31:41;;;;;;;3.10;1.38;;;;;;;47.44;30.74;99155.84;7396487;19;20022;-82
2023/06/18 10:34:08;;;;;;;7.05;1.98;;;;;;;45.72;33.70;99157.31;7396209;19;20029;-81
2023/06/18 10:36:36;;;;;;;7.78;1.63;;;;;;;41.36;39.39;99159.88;7394531;19;20345;-81
2023/06/18 10:39:03;;;;;;;2.67;1.02;;;;;;;28.28;96.13;99166.53;7392552;19;20018;-82
2023/06/18 10:41:29;;;;;;;3.20;1.23;;;;;;;26.24;100.00;99174.25;7398495;19;20015;-82
2023/06/18 10:43:55;;;;;;;4.40;1.63;;;;;;;25.59;100.00;99176.38;7395876;19;20086;-82
2023/06/18 10:46:22;;;;;;;2.95;1.60;;;;;;;24.99;100.00;99175.25;7393907;19;20014;-81
2023/06/18 10:49:14;;;;;;;3.08;1.25;;;;;;;25.30;100.00;99173.41;7395972;19;20018;-81
2023/06/18 10:51:41;;;;;;;2.05;0.55;;;;;;;24.69;100.00;99172.78;7397461;19;20035;-80
2023/06/18 10:54:22;;;;;;;3.95;1.17;;;;;;;24.97;100.00;99171.47;7395394;19;20386;-80
2023/06/18 10:56:53;;;;;;;3.88;0.93;;;;;;;24.87;100.00;99160.03;7393053;19;20092;-83
2023/06/18 10:59:42;;;;;;;3.10;1.10;;;;;;;25.06;100.00;99159.38;7392295;19;20022;-81
2023/06/18 11:02:10;;;;;;;4.15;1.02;;;;;;;41.24;54.69;99148.03;7396517;19;20015;-81
2023/06/18 11:04:36;;;;;;;6.80;1.83;;;;;;;32.44;64.53;99151.94;7394340;19;20010;-82
2023/06/18 11:07:12;;;;;;;4.43;1.25;;;;;;;27.18;100.00;99147.44;7393002;19;20090;-83
2023/06/18 11:09:59;;;;;;;4.28;1.42;;;;;;;25.88;100.00;99156.47;7392726;19;20078;-83
2023/06/18 11:12:33;;;;;;;4.20;1.05;;;;;;;27.56;100.00;99144.41;7396673;19;20046;-83
2023/06/18 11:15:17;;;;;;;5.43;0.60;;;;;;;27.13;100.00;99155.00;7392540;19;20026;-82
2023/06/18 11:17:50;;;;;;;0.75;0.65;;;;;;;38.49;69.48;99132.53;7394234;19;20086;-82
2023/06/18 11:20:19;;;;;;;3.13;0.52;;;;;;;40.26;45.88;99120.94;7395075;19;20015;-80
2023/06/18 11:22:46;;;;;;;3.50;1.00;;;;;;;45.52;36.97;99116.22;7391978;19;20545;-81
2023/06/18 11:25:14;;;;;;;7.03;0.95;;;;;;;47.09;33.59;99114.94;7392916;19;20087;-81
2023/06/18 11:27:42;;;;;;;1.58;0.43;;;;;;;49.22;30.60;99104.16;7391407;19;20031;-81
2023/06/18 11:30:10;;;;;;;2.03;0.80;;;;;;;46.07;33.29;99107.06;7391784;19;20011;-81
2023/06/18 11:32:37;;;;;;;1.90;0.65;;;;;;;47.50;30.78;99102.66;7393608;19;20010;-82
2023/06/18 11:35:08;;;;;;;2.33;0.80;;;;;;;50.24;27.90;99094.44;7392121;19;20094;-81
2023/06/18 11:37:37;;;;;;;5.40;0.95;;;;;;;46.90;28.54;99095.97;7390539;19;20038;-80
2023/06/18 11:40:07;;;;;;;2.85;0.55;;;;;;;49.51;26.98;99087.28;7394129;19;20477;-82
2023/06/18 11:42:45;;;;;;;4.32;0.90;;;;;;;49.93;26.21;99089.25;7396446;19;20580;-83
2023/06/18 11:45:12;;;;;;;6.18;1.70;;;;;;;49.93;26.13;99095.19;7389531;19;20021;-83
2023/06/18 11:47:47;;;;;;;3.45;0.88;;;;;;;49.59;25.53;99081.16;7394179;19;20022;-83
2023/06/18 11:50:14;;;;;;;2.15;0.38;;;;;;;45.87;28.42;99092.47;7392112;19;20104;-84
2023/06/18 11:52:41;;;;;;;2.72;0.70;;;;;;;49.24;26.26;99083.41;7394825;19;20022;-83
2023/06/18 11:55:08;;;;;;;1.10;0.40;;;;;;;48.66;26.68;99083.06;7395486;19;20023;-83
2023/06/18 11:57:34;;;;;;;2.70;0.95;;;;;;;48.36;26.22;99080.66;7392956;19;20499;-84
2023/06/18 12:00:05;;;;;;;2.53;1.00;;;;;;;35.66;39.56;99096.38;7393076;19;20024;-84
2023/06/18 12:02:39;;;;;;;0.88;0.40;;;;;;;28.53;96.25;99100.06;7394997;19;20002;-84
2023/06/18 12:05:07;;;;;;;6.18;1.48;;;;;;;26.86;100.00;99109.50;7392237;19;20018;-85
2023/06/18 12:07:33;;;;;;;2.08;0.32;;;;;;;26.48;100.00;99103.13;7391999;19;20010;-84
2023/06/18 12:10:10;;;;;;;2.53;0.80;;;;;;;26.43;100.00;99107.78;7392651;19;20015;-83
2023/06/18 12:13:01;;;;;;;2.38;0.57;;;;;;;26.07;100.00;99100.16;7391017;19;20016;-84
2023/06/18 12:15:39;;;;;;;4.88;0.68;;;;;;;25.81;100.00;99103.16;7395325;19;20550;-85
2023/06/18 12:18:09;;;;;;;2.17;0.63;;;;;;;25.81;100.00;99106.00;7396281;19;20013;-83
2023/06/18 12:20:36;;;;;;;3.00;0.90;;;;;;;25.76;100.00;99104.19;7394538;19;20477;-83
2023/06/18 12:23:04;;;;;;;1.42;0.47;;;;;;;25.63;100.00;99096.09;7395114;19;20480;-85
2023/06/18 12:25:32;;;;;;;2.78;0.57;;;;;;;25.69;100.00;99105.84;7394203;19;20015;-84